Riverside Municipal Airport Riverside US
ICAO: KRAL
IATA: RAL
Category: Medium
Scheduled Services: No

Elevation: 819 ft
TransAlt. 18000 ft.

Airport Communications:
SOCAL APP/DEP:135.4
ATIS:128.8
CTAF:121
GND:121.7
RDO:25.54
RDO:122.05
TWR:121
UNICOM:122.95

KRAL Zoom In..

If you have problems with the map follow the link
https://www.worldairports.se/pages/airport.php?
ICAO=KRAL

Runways:

(A) RW 09 length 5401 ft width 100 ft
ILS 110.90 / hdg 89

(B) RW 16 length 2850 ft width 48 ft
---- / hdg 165

(C) RW 27 length 5401 ft width 100 ft
---- / hdg 269

(D) RW 34 length 2850 ft width 48 ft
---- / hdg 345

Location; KRAL
Day. 13 / Time. 21.53 Zulu
* Altimeter: 30.05
* Temperature: 22° c. 71.6°f.
* Wind from: 270° Speed 08 kn.
Dewpoint: 08° c.
Visibility: 10 Statute Miles.
Clouds: Clear (automated report).

KRAL 132153Z 27008KT 10SM CLR 22/08 A3005 RMK AO2 SLP164 T02170083


Wind From 270°
Speed 08 kn.

 
 
jpsmedia worldairports.se 2019   terms of use